首页
METAR-TAF:

METAR-TAF

机场 :

Omak Airport

Omak, 华盛顿, 美国

纬度: 48-27-51N, 经度: 119-31-05W, 海拔: 397米

当前天气观测

该预报发布于26分钟前的23:53 UTC
风速4节,风向南转西南
温度 23°C
湿度 36%
气压 1012 hPa
能見度: 16.1公里
天空无云

METAR: KOMK 212353Z AUTO 20004KT 10SM CLR 23/07 A2989 RMK AO2 SLP119 T02330067 10239 20161 56015

时间: 17:19 (00:19 UTC)


TAF: 丢失

超过4000个机场的气象观测和天气预报(METAR&TAF报告)。

可查询的气象台以黄色和红色小点在地图上表示。

将鼠标移到小点上方,可查看气象台名称。

然后点击查看天气观测和预报。

如需切换地图:点击带黑十字的绿色按钮放大地图;点击带横线的绿色按钮缩小地图;或者点击绿色箭头查看邻近地区的地图。


METAR-TAF: